createdAt,value
2022-09-20T00:01:11.443Z,2.17
2022-09-20T00:03:40.727Z,2.10
2022-09-20T00:06:10.257Z,2.23
2022-09-20T00:08:38.867Z,1.77
2022-09-20T00:11:11.567Z,1.50
2022-09-20T00:13:40.967Z,1.40
2022-09-20T00:16:10.447Z,0.90
2022-09-20T00:18:38.821Z,1.57
2022-09-20T00:21:07.589Z,1.67
2022-09-20T00:23:36.415Z,1.57
2022-09-20T00:26:05.659Z,1.87
2022-09-20T00:28:35.121Z,1.80
2022-09-20T00:31:03.393Z,1.10
2022-09-20T00:33:45.239Z,1.23
2022-09-20T00:36:13.505Z,1.10
2022-09-20T00:38:41.451Z,2.03
2022-09-20T00:41:10.051Z,2.50
2022-09-20T00:43:40.967Z,2.17
2022-09-20T00:46:21.697Z,1.97
2022-09-20T00:48:50.482Z,1.53
2022-09-20T00:51:24.307Z,2.37
2022-09-20T00:53:52.920Z,2.30
2022-09-20T00:56:25.892Z,2.40
2022-09-20T00:59:03.016Z,2.90
2022-09-20T01:01:31.864Z,2.17
2022-09-20T01:04:00.341Z,1.53
2022-09-20T01:06:28.787Z,3.07
2022-09-20T01:08:59.395Z,2.33
2022-09-20T01:11:27.946Z,3.10
2022-09-20T01:13:57.638Z,2.67
2022-09-20T01:16:27.417Z,2.00
2022-09-20T01:18:58.146Z,1.87
2022-09-20T01:21:27.219Z,2.00
2022-09-20T01:24:06.992Z,2.63
2022-09-20T01:29:21.872Z,2.17
2022-09-20T01:31:54.575Z,2.23
2022-09-20T01:34:28.899Z,2.00
2022-09-20T01:37:05.963Z,2.10
2022-09-20T01:39:47.133Z,2.67
2022-09-20T01:42:16.085Z,1.80
2022-09-20T01:44:56.178Z,1.77
2022-09-20T01:47:33.160Z,1.80
2022-09-20T01:50:10.643Z,2.17
2022-09-20T01:53:04.908Z,1.60
2022-09-20T01:56:08.667Z,2.07
2022-09-20T01:59:24.707Z,1.40
2022-09-20T02:02:22.190Z,1.43
2022-09-20T02:05:28.848Z,1.77
2022-09-20T02:08:09.979Z,2.07
2022-09-20T02:11:05.082Z,2.53
2022-09-20T02:13:43.279Z,2.03
2022-09-20T02:16:44.740Z,1.70
2022-09-20T02:19:33.932Z,2.53
2022-09-20T02:22:23.905Z,2.10
2022-09-20T02:24:59.272Z,2.67
2022-09-20T02:27:38.173Z,2.17
2022-09-20T02:30:18.260Z,3.80
2022-09-20T02:33:13.759Z,1.73
2022-09-20T02:35:56.262Z,1.97
2022-09-20T02:38:40.697Z,1.90
2022-09-20T02:41:35.731Z,2.80
2022-09-20T02:44:10.315Z,2.10
2022-09-20T02:46:46.637Z,2.20
2022-09-20T02:49:24.834Z,1.70
2022-09-20T02:51:58.799Z,2.47
2022-09-20T02:54:38.717Z,1.60
2022-09-20T02:57:15.017Z,2.00
2022-09-20T02:59:48.545Z,1.67
2022-09-20T03:02:24.912Z,1.40
2022-09-20T03:05:09.626Z,1.97
2022-09-20T03:07:51.080Z,1.70
2022-09-20T03:10:26.135Z,2.73
2022-09-20T03:13:08.214Z,2.10
2022-09-20T03:15:46.823Z,1.47
2022-09-20T03:18:17.686Z,2.37
2022-09-20T03:20:58.954Z,1.30
2022-09-20T03:23:43.689Z,1.77
2022-09-20T03:26:24.318Z,2.90
2022-09-20T03:29:01.127Z,1.67
2022-09-20T03:31:51.432Z,3.47
2022-09-20T03:34:33.318Z,3.13
2022-09-20T03:37:16.908Z,2.03
2022-09-20T03:40:28.207Z,1.87
2022-09-20T03:43:05.182Z,2.67
2022-09-20T03:45:59.855Z,1.90
2022-09-20T03:48:54.212Z,2.20
2022-09-20T03:51:33.600Z,2.53
2022-09-20T03:54:43.895Z,1.57
2022-09-20T03:57:46.306Z,1.90
2022-09-20T04:00:23.660Z,1.30
2022-09-20T04:03:25.783Z,2.40
2022-09-20T04:06:13.262Z,1.80
2022-09-20T04:08:57.486Z,1.40
2022-09-20T04:11:32.735Z,1.93
2022-09-20T04:14:11.529Z,2.10
2022-09-20T04:16:44.138Z,1.83
2022-09-20T04:19:18.066Z,1.90
2022-09-20T04:21:54.771Z,2.00
2022-09-20T04:24:30.454Z,1.47
2022-09-20T04:27:02.276Z,1.80
2022-09-20T04:29:41.722Z,4.03
2022-09-20T04:32:18.969Z,1.90
2022-09-20T04:35:08.234Z,1.77
2022-09-20T04:37:39.673Z,1.77
2022-09-20T04:40:20.723Z,1.53
2022-09-20T04:43:27.752Z,2.37
2022-09-20T04:46:12.534Z,1.53
2022-09-20T04:49:20.189Z,2.00
2022-09-20T04:52:26.195Z,2.27
2022-09-20T04:55:32.912Z,1.83
2022-09-20T04:58:38.144Z,2.20
2022-09-20T05:01:35.239Z,2.03
2022-09-20T05:04:28.448Z,1.53
2022-09-20T05:07:21.093Z,1.70
2022-09-20T05:10:15.627Z,2.27
2022-09-20T05:13:05.282Z,1.93
2022-09-20T05:15:43.371Z,1.50
2022-09-20T05:18:53.981Z,1.30
2022-09-20T05:21:52.227Z,1.33
2022-09-20T05:24:41.163Z,1.83
2022-09-20T05:27:26.653Z,1.30
2022-09-20T05:30:04.987Z,1.83
2022-09-20T05:32:41.084Z,1.80
2022-09-20T05:35:23.094Z,1.97
2022-09-20T05:38:01.294Z,2.57
2022-09-20T05:40:36.621Z,1.97
2022-09-20T05:43:11.817Z,1.80
2022-09-20T05:45:54.026Z,1.73
2022-09-20T05:48:33.096Z,2.27
2022-09-20T05:51:13.151Z,3.00
2022-09-20T05:53:59.292Z,3.07
2022-09-20T05:56:38.576Z,2.07
2022-09-20T05:59:29.634Z,3.43
2022-09-20T06:02:15.335Z,3.10
2022-09-20T06:04:48.072Z,2.30
2022-09-20T06:07:26.414Z,1.97
2022-09-20T06:10:31.562Z,2.03
2022-09-20T06:13:09.611Z,2.50
2022-09-20T06:15:44.760Z,2.70
2022-09-20T06:18:24.574Z,2.03
2022-09-20T06:21:01.187Z,2.53
2022-09-20T06:23:32.487Z,1.87
2022-09-20T06:26:07.763Z,2.57
2022-09-20T06:28:41.255Z,2.57
2022-09-20T06:31:10.511Z,2.83
2022-09-20T06:33:45.039Z,1.97
2022-09-20T06:36:36.051Z,1.93
2022-09-20T06:39:34.810Z,2.80
2022-09-20T06:42:02.970Z,6.20
2022-09-20T06:44:31.164Z,6.00
2022-09-20T06:46:59.617Z,5.37
2022-09-20T06:49:29.124Z,2.97
2022-09-20T06:51:57.483Z,1.93
2022-09-20T06:54:27.116Z,1.70
2022-09-20T06:56:55.278Z,2.30
2022-09-20T06:59:23.546Z,2.67
2022-09-20T07:01:51.937Z,1.70
2022-09-20T07:04:19.872Z,2.13
2022-09-20T07:06:48.173Z,2.50
2022-09-20T07:09:17.685Z,2.20
2022-09-20T07:11:46.934Z,1.77
2022-09-20T07:14:15.546Z,2.40
2022-09-20T07:16:43.535Z,3.10
2022-09-20T07:19:11.448Z,2.47
2022-09-20T07:21:39.383Z,2.37
2022-09-20T07:24:07.378Z,2.60
2022-09-20T07:26:35.627Z,2.23
2022-09-20T07:29:06.698Z,3.40
2022-09-20T07:31:34.728Z,2.00
2022-09-20T07:34:02.586Z,3.60
2022-09-20T07:36:30.463Z,2.83
2022-09-20T07:38:58.559Z,2.37
2022-09-20T07:41:26.561Z,3.00
2022-09-20T07:43:54.456Z,2.30
2022-09-20T07:46:24.199Z,2.07
2022-09-20T07:48:52.309Z,2.50
2022-09-20T07:51:20.202Z,2.00
2022-09-20T07:53:48.096Z,3.03
2022-09-20T07:56:18.250Z,3.80
2022-09-20T07:58:50.054Z,3.97
2022-09-20T08:01:20.991Z,2.50
2022-09-20T08:03:51.818Z,2.57
2022-09-20T08:06:21.259Z,3.23
2022-09-20T08:08:49.436Z,2.73
2022-09-20T08:11:19.920Z,2.10
2022-09-20T08:14:07.033Z,2.67
2022-09-20T08:16:40.318Z,1.73
2022-09-20T08:19:11.285Z,2.40
2022-09-20T08:21:39.739Z,2.50
2022-09-20T08:24:07.857Z,2.30
2022-09-20T08:26:37.073Z,1.53
2022-09-20T08:29:05.881Z,1.67
2022-09-20T08:31:36.734Z,2.27
2022-09-20T08:34:06.545Z,1.50
2022-09-20T08:36:37.603Z,2.03
2022-09-20T08:41:56.688Z,1.60
2022-09-20T08:44:28.001Z,1.63
2022-09-20T08:47:06.064Z,1.80
2022-09-20T08:49:34.913Z,2.63
2022-09-20T08:52:10.455Z,1.20
2022-09-20T08:54:38.555Z,1.43
2022-09-20T08:57:15.552Z,1.00
2022-09-20T08:59:43.694Z,1.80
2022-09-20T09:02:16.902Z,2.20
2022-09-20T09:04:45.796Z,1.50
2022-09-20T09:07:17.220Z,1.50
2022-09-20T09:09:47.567Z,1.40
2022-09-20T09:12:21.861Z,1.20
2022-09-20T09:14:55.066Z,1.20
2022-09-20T09:17:27.574Z,1.90
2022-09-20T09:19:57.557Z,1.00
2022-09-20T09:22:32.736Z,2.13
2022-09-20T09:25:19.545Z,1.40
2022-09-20T09:27:52.198Z,1.00
2022-09-20T09:30:23.561Z,1.57
2022-09-20T09:32:51.656Z,1.30
2022-09-20T09:35:29.786Z,1.30
2022-09-20T09:38:01.119Z,2.40
2022-09-20T09:40:31.638Z,1.10
2022-09-20T09:43:01.616Z,1.77
2022-09-20T09:45:36.068Z,1.13
2022-09-20T09:48:12.580Z,1.30
2022-09-20T09:50:40.484Z,1.67
2022-09-20T09:53:13.502Z,0.90
2022-09-20T09:56:05.166Z,1.63
2022-09-20T09:58:41.584Z,1.77
2022-09-20T10:01:16.090Z,1.73
2022-09-20T10:03:54.947Z,1.40
2022-09-20T10:06:26.488Z,1.10
2022-09-20T10:09:07.741Z,1.43
2022-09-20T10:11:51.007Z,1.60
2022-09-20T10:14:30.554Z,1.20
2022-09-20T10:17:13.805Z,1.73
2022-09-20T10:19:51.331Z,1.67
2022-09-20T10:22:28.549Z,1.70
2022-09-20T10:25:10.272Z,1.43
2022-09-20T10:27:53.143Z,1.50
2022-09-20T10:30:24.221Z,1.03
2022-09-20T10:33:01.343Z,1.03
2022-09-20T10:35:42.537Z,1.53
2022-09-20T10:38:19.757Z,1.07
2022-09-20T10:41:29.715Z,1.07
2022-09-20T10:44:10.146Z,1.20
2022-09-20T10:46:49.900Z,0.90
2022-09-20T10:49:26.127Z,0.80
2022-09-20T10:52:08.384Z,1.13
2022-09-20T10:54:47.951Z,1.10
2022-09-20T10:57:35.126Z,1.43
2022-09-20T11:00:09.748Z,1.13
2022-09-20T11:02:47.506Z,0.90
2022-09-20T11:05:20.613Z,0.60
2022-09-20T11:07:57.708Z,1.33
2022-09-20T11:10:29.732Z,0.90
2022-09-20T11:13:02.649Z,1.20
2022-09-20T11:15:36.186Z,1.00
2022-09-20T11:18:11.974Z,1.30
2022-09-20T11:20:45.323Z,1.13
2022-09-20T11:23:18.685Z,1.10
2022-09-20T11:25:51.773Z,0.67
2022-09-20T11:28:25.517Z,1.27
2022-09-20T11:31:04.342Z,1.13
2022-09-20T11:33:41.257Z,0.80
2022-09-20T11:36:16.506Z,1.30
2022-09-20T11:38:53.272Z,2.63
2022-09-20T11:41:27.174Z,1.13
2022-09-20T11:44:00.409Z,1.00
2022-09-20T11:46:32.703Z,1.10
2022-09-20T11:49:03.971Z,1.30
2022-09-20T11:52:06.919Z,1.00
2022-09-20T11:54:59.790Z,1.00
2022-09-20T11:57:28.276Z,2.50
2022-09-20T12:00:00.892Z,0.80
2022-09-20T12:02:45.033Z,0.93
2022-09-20T12:05:27.805Z,0.97
2022-09-20T12:07:57.474Z,1.30
2022-09-20T12:10:27.853Z,1.50
2022-09-20T12:13:00.994Z,1.20
2022-09-20T12:15:32.967Z,0.90
2022-09-20T12:18:31.145Z,1.37
2022-09-20T12:21:05.782Z,1.00
2022-09-20T12:24:01.868Z,0.80
2022-09-20T12:26:46.947Z,2.10
2022-09-20T12:29:52.207Z,1.27
2022-09-20T12:32:50.535Z,1.30
2022-09-20T12:35:59.178Z,2.50
2022-09-20T12:38:37.493Z,1.40
2022-09-20T12:41:11.891Z,1.53
2022-09-20T12:43:50.712Z,1.07
2022-09-20T12:46:30.382Z,1.20
2022-09-20T12:49:52.490Z,1.93
2022-09-20T12:52:57.444Z,1.87
2022-09-20T12:55:52.805Z,1.87
2022-09-20T12:58:30.969Z,1.40
2022-09-20T13:01:44.572Z,0.80
2022-09-20T13:04:52.540Z,0.83
2022-09-20T13:07:52.994Z,1.17
2022-09-20T13:10:31.494Z,0.97
2022-09-20T13:13:04.278Z,0.80
2022-09-20T13:15:33.135Z,1.00
2022-09-20T13:18:03.098Z,0.60
2022-09-20T13:20:35.093Z,1.20
2022-09-20T13:23:06.170Z,0.73
2022-09-20T13:25:35.021Z,1.00
2022-09-20T13:28:08.803Z,0.87
2022-09-20T13:30:37.300Z,0.90
2022-09-20T13:33:23.706Z,0.60
2022-09-20T13:35:58.127Z,0.80
2022-09-20T13:38:29.888Z,0.97
2022-09-20T13:41:04.510Z,1.03
2022-09-20T13:43:36.887Z,1.27
2022-09-20T13:46:09.932Z,1.00
2022-09-20T13:48:38.790Z,0.80
2022-09-20T13:51:18.273Z,0.90
2022-09-20T13:53:46.754Z,1.00
2022-09-20T13:56:21.714Z,0.80
2022-09-20T13:58:50.885Z,0.97
2022-09-20T14:01:25.341Z,1.40
2022-09-20T14:03:54.553Z,1.10
2022-09-20T14:06:29.515Z,1.17
2022-09-20T14:08:59.833Z,1.20
2022-09-20T14:11:29.767Z,0.93
2022-09-20T14:14:00.098Z,0.97
2022-09-20T14:16:32.026Z,1.53
2022-09-20T14:19:00.411Z,1.10
2022-09-20T14:21:32.996Z,1.00
2022-09-20T14:24:04.085Z,0.90
2022-09-20T14:26:34.710Z,1.30
2022-09-20T14:29:29.777Z,1.10
2022-09-20T14:32:01.084Z,1.07
2022-09-20T14:34:29.285Z,1.33
2022-09-20T14:37:06.466Z,1.60
2022-09-20T14:39:38.603Z,1.20
2022-09-20T14:42:20.035Z,1.57
2022-09-20T14:44:52.122Z,1.47
2022-09-20T14:47:28.405Z,1.00
2022-09-20T14:49:58.010Z,1.33
2022-09-20T14:52:43.744Z,1.23
2022-09-20T14:55:28.260Z,0.87
2022-09-20T14:58:05.476Z,1.23
2022-09-20T15:00:48.282Z,1.63
2022-09-20T15:03:18.186Z,1.50
2022-09-20T15:05:49.862Z,1.17
2022-09-20T15:08:20.331Z,1.17
2022-09-20T15:10:48.765Z,1.23
2022-09-20T15:13:16.666Z,1.20
2022-09-20T15:15:45.862Z,1.40
2022-09-20T15:18:21.532Z,1.60
2022-09-20T15:20:50.198Z,1.00
2022-09-20T15:23:19.823Z,0.90
2022-09-20T15:25:51.588Z,1.00
2022-09-20T15:28:19.587Z,0.60
2022-09-20T15:30:49.202Z,0.87
2022-09-20T15:33:17.988Z,0.97
2022-09-20T15:35:46.628Z,1.13
2022-09-20T15:38:15.837Z,0.80
2022-09-20T15:40:47.286Z,1.00
2022-09-20T15:43:17.750Z,0.87
2022-09-20T15:45:50.529Z,0.80
2022-09-20T15:48:20.766Z,1.00
2022-09-20T15:51:02.156Z,0.97
2022-09-20T15:53:33.449Z,1.27
2022-09-20T15:56:05.066Z,0.90
2022-09-20T15:58:36.456Z,0.87
2022-09-20T16:01:06.914Z,1.10
2022-09-20T16:03:35.453Z,1.27
2022-09-20T16:06:04.887Z,1.50
2022-09-20T16:08:33.772Z,1.20
2022-09-20T16:11:03.537Z,0.97
2022-09-20T16:13:31.698Z,1.40
2022-09-20T16:16:01.701Z,0.93
2022-09-20T16:18:47.674Z,1.03
2022-09-20T16:21:17.389Z,1.10
2022-09-20T16:23:49.269Z,1.00
2022-09-20T16:26:19.598Z,1.33
2022-09-20T16:28:48.678Z,0.97
2022-09-20T16:31:34.735Z,1.37
2022-09-20T16:34:03.961Z,0.80
2022-09-20T16:36:31.879Z,1.00
2022-09-20T16:39:01.165Z,1.20
2022-09-20T16:41:31.960Z,1.40
2022-09-20T16:43:59.887Z,1.17
2022-09-20T16:46:28.375Z,1.70
2022-09-20T16:48:59.271Z,1.20
2022-09-20T16:51:32.637Z,1.20
2022-09-20T16:54:03.204Z,1.43
2022-09-20T16:56:34.798Z,1.43
2022-09-20T16:59:03.837Z,1.20
2022-09-20T17:01:32.635Z,1.60
2022-09-20T17:04:01.117Z,1.20
2022-09-20T17:06:29.343Z,1.93
2022-09-20T17:08:59.193Z,1.20
2022-09-20T17:11:28.863Z,1.10
2022-09-20T17:13:58.805Z,1.50
2022-09-20T17:16:29.770Z,1.20
2022-09-20T17:18:59.330Z,1.63
2022-09-20T17:21:28.637Z,1.40
2022-09-20T17:23:58.467Z,1.30
2022-09-20T17:26:27.990Z,1.20
2022-09-20T17:28:58.335Z,1.63
2022-09-20T17:31:32.584Z,1.20
2022-09-20T17:34:01.204Z,1.00
2022-09-20T17:36:30.554Z,1.60
2022-09-20T17:39:04.104Z,1.40
2022-09-20T17:41:33.812Z,1.40
2022-09-20T17:44:07.978Z,1.00
2022-09-20T17:46:37.324Z,1.97
2022-09-20T17:49:07.386Z,1.80
2022-09-20T17:51:37.979Z,1.83
2022-09-20T17:54:06.270Z,1.37
2022-09-20T17:56:35.470Z,2.20
2022-09-20T17:59:06.697Z,3.20
2022-09-20T18:01:37.548Z,2.30
2022-09-20T18:04:07.221Z,1.53
2022-09-20T18:06:36.959Z,1.90
2022-09-20T18:09:06.643Z,1.93
2022-09-20T18:11:36.522Z,2.23
2022-09-20T18:14:08.096Z,1.17
2022-09-20T18:16:37.237Z,2.07
2022-09-20T18:19:05.779Z,1.93
2022-09-20T18:21:35.636Z,1.40
2022-09-20T18:24:06.092Z,1.63
2022-09-20T18:26:34.423Z,1.83
2022-09-20T18:29:05.157Z,1.63
2022-09-20T18:31:36.870Z,1.73
2022-09-20T18:34:06.134Z,2.00
2022-09-20T18:36:36.114Z,2.20
2022-09-20T18:39:04.596Z,2.80
2022-09-20T18:41:34.168Z,4.90
2022-09-20T18:44:03.950Z,2.90
2022-09-20T18:46:32.480Z,2.30
2022-09-20T18:49:04.998Z,1.93
2022-09-20T18:51:38.566Z,1.60
2022-09-20T18:54:08.957Z,2.03
2022-09-20T18:56:38.520Z,2.73
2022-09-20T18:59:09.231Z,2.93
2022-09-20T19:02:00.573Z,1.17
2022-09-20T19:04:38.866Z,3.23
2022-09-20T19:07:14.250Z,1.87
2022-09-20T19:09:49.381Z,1.20
2022-09-20T19:12:24.115Z,2.03
2022-09-20T19:15:17.783Z,2.47
2022-09-20T19:18:00.916Z,1.77
2022-09-20T19:20:35.596Z,1.80
2022-09-20T19:23:13.967Z,2.40
2022-09-20T19:25:44.183Z,1.73
2022-09-20T19:28:13.459Z,1.13
2022-09-20T19:30:42.616Z,1.70
2022-09-20T19:33:16.775Z,2.70
2022-09-20T19:35:49.925Z,1.50
2022-09-20T19:38:27.607Z,1.60
2022-09-20T19:41:04.702Z,1.40
2022-09-20T19:43:45.887Z,3.20
2022-09-20T19:46:30.773Z,2.10
2022-09-20T19:49:09.052Z,1.80
2022-09-20T19:51:39.475Z,1.57
2022-09-20T19:54:11.975Z,2.50
2022-09-20T19:56:52.841Z,2.13
2022-09-20T19:59:21.998Z,1.93
2022-09-20T20:01:50.384Z,1.90
2022-09-20T20:04:18.824Z,1.50
2022-09-20T20:07:00.004Z,1.90
2022-09-20T20:09:38.183Z,2.10
2022-09-20T20:12:14.589Z,2.00
2022-09-20T20:14:54.283Z,2.07
2022-09-20T20:17:37.619Z,1.47
2022-09-20T20:20:20.119Z,1.70
2022-09-20T20:23:12.185Z,1.97
2022-09-20T20:25:47.385Z,1.87
2022-09-20T20:28:15.535Z,2.63
2022-09-20T20:30:43.743Z,1.93
2022-09-20T20:33:15.908Z,3.57
2022-09-20T20:35:43.916Z,2.60
2022-09-20T20:38:13.151Z,2.43
2022-09-20T20:40:41.287Z,2.23
2022-09-20T20:43:09.885Z,2.47
2022-09-20T20:45:38.636Z,2.30
2022-09-20T20:48:06.550Z,2.10
2022-09-20T20:50:34.445Z,2.67
2022-09-20T20:53:02.320Z,3.70
2022-09-20T20:55:31.586Z,2.20
2022-09-20T20:58:00.300Z,3.17
2022-09-20T21:00:29.965Z,3.20
2022-09-20T21:02:59.738Z,2.77
2022-09-20T21:05:28.551Z,3.03
2022-09-20T21:07:57.896Z,4.77
2022-09-20T21:10:25.972Z,5.47
2022-09-20T21:12:56.432Z,5.53
2022-09-20T21:15:26.898Z,4.37
2022-09-20T21:17:54.981Z,4.07
2022-09-20T21:20:22.946Z,2.97
2022-09-20T21:22:50.842Z,2.27
2022-09-20T21:25:18.773Z,2.40
2022-09-20T21:27:46.662Z,2.70
2022-09-20T21:30:16.136Z,3.30
2022-09-20T21:32:44.031Z,2.27
2022-09-20T21:35:11.882Z,1.93
2022-09-20T21:37:39.800Z,2.20
2022-09-20T21:40:10.006Z,2.20
2022-09-20T21:42:37.927Z,1.80
2022-09-20T21:45:09.617Z,1.70
2022-09-20T21:47:38.853Z,3.77
2022-09-20T21:50:07.639Z,2.10
2022-09-20T21:52:35.578Z,2.37
2022-09-20T21:55:03.548Z,2.20
2022-09-20T21:57:31.539Z,3.40
2022-09-20T21:59:59.394Z,4.60
2022-09-20T22:02:27.348Z,2.67
2022-09-20T22:04:56.608Z,2.00
2022-09-20T22:07:24.558Z,2.60
2022-09-20T22:09:52.483Z,2.37
2022-09-20T22:12:23.953Z,1.43
2022-09-20T22:14:52.067Z,2.00
2022-09-20T22:17:19.954Z,1.87
2022-09-20T22:19:47.835Z,2.20
2022-09-20T22:22:17.104Z,2.23
2022-09-20T22:24:45.005Z,2.27
2022-09-20T22:27:12.892Z,1.73
2022-09-20T22:29:40.750Z,2.30
2022-09-20T22:32:08.651Z,3.00
2022-09-20T22:34:36.555Z,1.80
2022-09-20T22:37:04.456Z,2.33
2022-09-20T22:39:33.690Z,2.33
2022-09-20T22:42:01.588Z,2.43
2022-09-20T22:44:29.460Z,2.50
2022-09-20T22:46:57.337Z,1.50
2022-09-20T22:49:25.203Z,3.23
2022-09-20T22:51:53.070Z,2.37
2022-09-20T22:54:20.958Z,1.87
2022-09-20T22:56:50.206Z,2.93
2022-09-20T22:59:18.083Z,2.23
2022-09-20T23:01:47.293Z,2.93
2022-09-20T23:04:17.134Z,2.90
2022-09-20T23:06:46.925Z,2.80
2022-09-20T23:09:16.666Z,2.77
2022-09-20T23:11:45.363Z,3.53
2022-09-20T23:14:15.876Z,2.03
2022-09-20T23:16:44.795Z,1.80
2022-09-20T23:19:14.117Z,2.47
2022-09-20T23:21:43.267Z,2.00
2022-09-20T23:24:13.366Z,2.87
2022-09-20T23:26:41.812Z,2.40
2022-09-20T23:29:11.934Z,2.57
2022-09-20T23:31:45.900Z,1.83
2022-09-20T23:34:15.631Z,4.10
2022-09-20T23:36:44.348Z,2.20
2022-09-20T23:39:12.934Z,2.07
2022-09-20T23:41:41.586Z,2.40
2022-09-20T23:44:11.374Z,2.33
2022-09-20T23:46:40.990Z,1.90
2022-09-20T23:49:09.464Z,2.43
2022-09-20T23:51:37.675Z,3.80
2022-09-20T23:54:06.213Z,2.30
2022-09-20T23:56:34.141Z,2.00
2022-09-20T23:59:02.028Z,4.40
